createdAt,value
2023-05-10T00:00:56.574Z,24.48
2023-05-10T00:01:56.646Z,24.49
2023-05-10T00:02:56.673Z,24.51
2023-05-10T00:03:56.645Z,24.51
2023-05-10T00:04:56.626Z,24.52
2023-05-10T00:05:56.585Z,24.52
2023-05-10T00:06:56.598Z,24.53
2023-05-10T00:07:56.594Z,24.52
2023-05-10T00:08:56.601Z,24.51
2023-05-10T00:09:56.585Z,24.52
2023-05-10T00:10:56.580Z,24.50
2023-05-10T00:11:56.588Z,24.51
2023-05-10T00:12:56.604Z,24.52
2023-05-10T00:13:56.588Z,24.52
2023-05-10T00:14:56.599Z,24.51
2023-05-10T00:15:56.579Z,24.52
2023-05-10T00:16:56.690Z,24.52
2023-05-10T00:17:56.628Z,24.53
2023-05-10T00:18:56.589Z,24.52
2023-05-10T00:19:56.594Z,24.52
2023-05-10T00:20:56.575Z,24.53
2023-05-10T00:21:56.567Z,24.52
2023-05-10T00:22:56.554Z,24.52
2023-05-10T00:23:56.560Z,24.53
2023-05-10T00:24:56.566Z,24.52
2023-05-10T00:25:56.591Z,24.52
2023-05-10T00:26:56.587Z,24.52
2023-05-10T00:27:56.609Z,24.51
2023-05-10T00:28:56.602Z,24.52
2023-05-10T00:29:56.580Z,24.52
2023-05-10T00:30:56.611Z,24.53
2023-05-10T00:31:56.618Z,24.53
2023-05-10T00:32:56.593Z,24.53
2023-05-10T00:33:56.642Z,24.53
2023-05-10T00:34:56.569Z,24.52
2023-05-10T00:35:56.614Z,24.51
2023-05-10T00:36:56.594Z,24.51
2023-05-10T00:37:56.588Z,24.52
2023-05-10T00:38:56.620Z,24.53
2023-05-10T00:39:56.590Z,24.52
2023-05-10T00:40:56.595Z,24.51
2023-05-10T00:41:56.630Z,24.51
2023-05-10T00:42:56.596Z,24.52
2023-05-10T00:43:56.603Z,24.52
2023-05-10T00:44:56.590Z,24.52
2023-05-10T00:45:56.652Z,24.53
2023-05-10T00:46:56.575Z,24.53
2023-05-10T00:47:56.640Z,24.53
2023-05-10T00:48:56.612Z,24.54
2023-05-10T00:49:56.592Z,24.53
2023-05-10T00:50:56.612Z,24.54
2023-05-10T00:51:56.589Z,24.55
2023-05-10T00:52:56.597Z,24.55
2023-05-10T00:53:56.605Z,24.55
2023-05-10T00:54:56.599Z,24.56
2023-05-10T00:55:56.601Z,24.55
2023-05-10T00:56:56.605Z,24.54
2023-05-10T00:57:56.618Z,24.53
2023-05-10T00:58:56.593Z,24.55
2023-05-10T00:59:56.606Z,24.56
2023-05-10T01:00:56.603Z,24.54
2023-05-10T01:01:56.578Z,24.55
2023-05-10T01:02:56.696Z,24.56
2023-05-10T01:03:56.588Z,24.54
2023-05-10T01:04:56.602Z,24.55
2023-05-10T01:05:56.603Z,24.56
2023-05-10T01:06:56.601Z,24.56
2023-05-10T01:07:56.587Z,24.56
2023-05-10T01:08:56.578Z,24.56
2023-05-10T01:09:56.606Z,24.57
2023-05-10T01:10:56.594Z,24.57
2023-05-10T01:11:56.607Z,24.56
2023-05-10T01:12:56.607Z,24.56
2023-05-10T01:13:56.574Z,24.56
2023-05-10T01:14:56.574Z,24.57
2023-05-10T01:15:56.616Z,24.57
2023-05-10T01:16:56.567Z,24.57
2023-05-10T01:17:56.613Z,24.57
2023-05-10T01:18:56.561Z,24.58
2023-05-10T01:19:56.575Z,24.57
2023-05-10T01:20:56.571Z,24.58
2023-05-10T01:21:56.544Z,24.56
2023-05-10T01:22:56.576Z,24.55
2023-05-10T01:23:56.556Z,24.56
2023-05-10T01:24:56.589Z,24.54
2023-05-10T01:25:56.603Z,24.55
2023-05-10T01:26:56.561Z,24.54
2023-05-10T01:27:56.580Z,24.55
2023-05-10T01:28:56.546Z,24.55
2023-05-10T01:30:13.635Z,24.55
2023-05-10T01:30:57.611Z,24.54
2023-05-10T01:31:56.574Z,24.55
2023-05-10T01:32:56.630Z,24.55
2023-05-10T01:33:56.526Z,24.55
2023-05-10T01:34:56.532Z,24.54
2023-05-10T01:35:56.506Z,24.55
2023-05-10T01:36:56.525Z,24.56
2023-05-10T01:37:56.503Z,24.56
2023-05-10T01:38:56.507Z,24.56
2023-05-10T01:39:56.501Z,24.56
2023-05-10T01:40:56.471Z,24.56
2023-05-10T01:41:56.483Z,24.56
2023-05-10T01:42:56.465Z,24.56
2023-05-10T01:43:56.468Z,24.56
2023-05-10T01:44:56.478Z,24.56
2023-05-10T01:45:56.434Z,24.57
2023-05-10T01:46:56.514Z,24.57
2023-05-10T01:47:56.473Z,24.57
2023-05-10T01:48:56.464Z,24.57
2023-05-10T01:49:56.448Z,24.57
2023-05-10T01:50:56.430Z,24.57
2023-05-10T01:51:56.443Z,24.58
2023-05-10T01:52:56.410Z,24.57
2023-05-10T01:53:56.439Z,24.57
2023-05-10T01:54:56.412Z,24.57
2023-05-10T01:55:56.409Z,24.58
2023-05-10T01:56:56.385Z,24.58
2023-05-10T01:57:56.395Z,24.58
2023-05-10T01:58:56.400Z,24.58
2023-05-10T01:59:56.375Z,24.58
2023-05-10T02:00:56.405Z,24.57
2023-05-10T02:01:56.353Z,24.58
2023-05-10T02:02:56.380Z,24.59
2023-05-10T02:03:56.416Z,24.59
2023-05-10T02:04:56.313Z,24.58
2023-05-10T02:05:56.334Z,24.58
2023-05-10T02:06:56.344Z,24.59
2023-05-10T02:07:56.352Z,24.59
2023-05-10T02:08:56.289Z,24.58
2023-05-10T02:09:56.297Z,24.59
2023-05-10T02:10:56.297Z,24.58
2023-05-10T02:11:56.307Z,24.59
2023-05-10T02:12:56.319Z,24.59
2023-05-10T02:13:56.309Z,24.59
2023-05-10T02:14:56.292Z,24.60
2023-05-10T02:15:56.237Z,24.60
2023-05-10T02:16:56.268Z,24.60
2023-05-10T02:17:56.273Z,24.60
2023-05-10T02:18:56.276Z,24.60
2023-05-10T02:19:56.222Z,24.60
2023-05-10T02:20:56.257Z,24.60
2023-05-10T02:21:56.235Z,24.59
2023-05-10T02:22:56.211Z,24.60
2023-05-10T02:23:56.202Z,24.61
2023-05-10T02:24:56.198Z,24.60
2023-05-10T02:25:56.203Z,24.60
2023-05-10T02:26:56.238Z,24.60
2023-05-10T02:27:56.203Z,24.60
2023-05-10T02:28:56.204Z,24.60
2023-05-10T02:29:56.171Z,24.61
2023-05-10T02:30:56.142Z,24.61
2023-05-10T02:31:56.292Z,24.60
2023-05-10T02:32:56.168Z,24.60
2023-05-10T02:33:56.156Z,24.60
2023-05-10T02:34:56.159Z,24.60
2023-05-10T02:35:56.145Z,24.60
2023-05-10T02:36:56.144Z,24.60
2023-05-10T02:37:56.143Z,24.60
2023-05-10T02:38:56.157Z,24.59
2023-05-10T02:39:56.140Z,24.59
2023-05-10T02:40:56.109Z,24.60
2023-05-10T02:41:56.091Z,24.60
2023-05-10T02:42:56.125Z,24.60
2023-05-10T02:43:56.106Z,24.60
2023-05-10T02:44:56.093Z,24.61
2023-05-10T02:45:56.172Z,24.60
2023-05-10T02:46:56.100Z,24.59
2023-05-10T02:47:56.084Z,24.60
2023-05-10T02:48:56.066Z,24.60
2023-05-10T02:49:56.049Z,24.60
2023-05-10T02:50:56.032Z,24.60
2023-05-10T02:51:56.036Z,24.61
2023-05-10T02:52:56.044Z,24.59
2023-05-10T02:53:56.013Z,24.59
2023-05-10T02:54:56.020Z,24.60
2023-05-10T02:55:56.008Z,24.60
2023-05-10T02:56:56.016Z,24.59
2023-05-10T02:57:55.981Z,24.60
2023-05-10T02:58:55.982Z,24.60
2023-05-10T02:59:55.984Z,24.61
2023-05-10T03:00:55.991Z,24.60
2023-05-10T03:01:55.986Z,24.60
2023-05-10T03:02:56.043Z,24.60
2023-05-10T03:03:55.952Z,24.61
2023-05-10T03:04:56.011Z,24.60
2023-05-10T03:05:55.950Z,24.59
2023-05-10T03:06:55.956Z,24.60
2023-05-10T03:07:55.967Z,24.59
2023-05-10T03:08:55.959Z,24.59
2023-05-10T03:09:55.943Z,24.60
2023-05-10T03:10:55.959Z,24.59
2023-05-10T03:11:55.962Z,24.58
2023-05-10T03:12:55.999Z,24.59
2023-05-10T03:13:56.651Z,24.59
2023-05-10T03:14:55.943Z,24.59
2023-05-10T03:15:55.946Z,24.59
2023-05-10T03:16:55.934Z,24.59
2023-05-10T03:17:55.962Z,24.60
2023-05-10T03:18:55.920Z,24.59
2023-05-10T03:19:55.973Z,24.59
2023-05-10T03:20:55.968Z,24.58
2023-05-10T03:21:55.928Z,24.59
2023-05-10T03:22:55.980Z,24.58
2023-05-10T03:23:55.959Z,24.58
2023-05-10T03:24:55.930Z,24.58
2023-05-10T03:25:55.956Z,24.58
2023-05-10T03:26:55.929Z,24.58
2023-05-10T03:27:55.915Z,24.59
2023-05-10T03:28:55.981Z,24.59
2023-05-10T03:29:55.950Z,24.58
2023-05-10T03:30:55.929Z,24.59
2023-05-10T03:31:55.993Z,24.59
2023-05-10T03:32:55.956Z,24.58
2023-05-10T03:33:55.944Z,24.58
2023-05-10T03:34:55.921Z,24.58
2023-05-10T03:35:55.916Z,24.59
2023-05-10T03:36:55.913Z,24.59
2023-05-10T03:37:55.877Z,24.59
2023-05-10T03:38:55.881Z,24.58
2023-05-10T03:39:55.908Z,24.59
2023-05-10T03:40:55.872Z,24.59
2023-05-10T03:41:55.871Z,24.59
2023-05-10T03:42:55.883Z,24.59
2023-05-10T03:43:55.938Z,24.59
2023-05-10T03:44:55.885Z,24.59
2023-05-10T03:45:55.895Z,24.60
2023-05-10T03:46:55.903Z,24.59
2023-05-10T03:47:55.883Z,24.60
2023-05-10T03:48:55.857Z,24.59
2023-05-10T03:49:55.852Z,24.59
2023-05-10T03:50:55.891Z,24.59
2023-05-10T03:51:55.845Z,24.59
2023-05-10T03:52:55.867Z,24.59
2023-05-10T03:53:55.865Z,24.59
2023-05-10T03:54:55.865Z,24.58
2023-05-10T03:55:55.863Z,24.59
2023-05-10T03:56:55.866Z,24.59
2023-05-10T03:57:55.827Z,24.60
2023-05-10T03:58:55.840Z,24.60
2023-05-10T03:59:55.857Z,24.60
2023-05-10T04:00:55.814Z,24.60
2023-05-10T04:01:55.858Z,24.59
2023-05-10T04:02:55.886Z,24.59
2023-05-10T04:03:55.852Z,24.60
2023-05-10T04:04:55.845Z,24.60
2023-05-10T04:05:55.854Z,24.59
2023-05-10T04:06:55.833Z,24.59
2023-05-10T04:07:55.841Z,24.59
2023-05-10T04:08:55.831Z,24.59
2023-05-10T04:09:55.869Z,24.59
2023-05-10T04:10:55.831Z,24.59
2023-05-10T04:11:55.860Z,24.58
2023-05-10T04:12:55.851Z,24.59
2023-05-10T04:13:55.804Z,24.59
2023-05-10T04:14:55.846Z,24.59
2023-05-10T04:15:55.863Z,24.59
2023-05-10T04:16:55.870Z,24.60
2023-05-10T04:17:55.877Z,24.60
2023-05-10T04:18:55.802Z,24.60
2023-05-10T04:19:55.846Z,24.60
2023-05-10T04:20:56.169Z,24.59
2023-05-10T04:21:56.241Z,24.58
2023-05-10T04:22:55.922Z,24.59
2023-05-10T04:23:55.956Z,24.58
2023-05-10T04:24:56.033Z,24.59
2023-05-10T04:25:56.064Z,24.59
2023-05-10T04:26:57.765Z,24.58
2023-05-10T04:27:56.160Z,24.58
2023-05-10T04:28:56.145Z,24.58
2023-05-10T04:29:56.185Z,24.58
2023-05-10T04:30:56.161Z,24.59
2023-05-10T04:31:56.143Z,24.58
2023-05-10T04:32:56.202Z,24.58
2023-05-10T04:33:56.156Z,24.58
2023-05-10T04:34:56.127Z,24.58
2023-05-10T04:35:56.115Z,24.57
2023-05-10T04:36:56.104Z,24.57
2023-05-10T04:37:56.136Z,24.57
2023-05-10T04:38:56.145Z,24.57
2023-05-10T04:39:56.125Z,24.57
2023-05-10T04:40:56.141Z,24.57
2023-05-10T04:41:56.118Z,24.58
2023-05-10T04:42:56.147Z,24.58
2023-05-10T04:43:56.110Z,24.58
2023-05-10T04:44:56.105Z,24.58
2023-05-10T04:45:56.097Z,24.58
2023-05-10T04:46:56.101Z,24.58
2023-05-10T04:47:56.165Z,24.58
2023-05-10T04:48:56.112Z,24.57
2023-05-10T04:49:56.125Z,24.58
2023-05-10T04:50:56.092Z,24.58
2023-05-10T04:51:56.098Z,24.57
2023-05-10T04:52:56.107Z,24.57
2023-05-10T04:54:05.286Z,24.57
2023-05-10T04:54:57.089Z,24.57
2023-05-10T04:55:56.079Z,24.57
2023-05-10T04:56:56.063Z,24.58
2023-05-10T04:57:56.092Z,24.58
2023-05-10T04:58:56.077Z,24.58
2023-05-10T04:59:56.038Z,24.58
2023-05-10T05:01:03.018Z,24.58
2023-05-10T05:01:56.150Z,24.58
2023-05-10T05:02:56.114Z,24.58
2023-05-10T05:03:56.167Z,24.58
2023-05-10T05:04:56.016Z,24.58
2023-05-10T05:05:56.001Z,24.59
2023-05-10T05:06:55.972Z,24.59
2023-05-10T05:07:55.974Z,24.59
2023-05-10T05:08:55.996Z,24.59
2023-05-10T05:09:56.007Z,24.60
2023-05-10T05:10:55.980Z,24.61
2023-05-10T05:11:55.970Z,24.61
2023-05-10T05:12:55.972Z,24.61
2023-05-10T05:13:55.956Z,24.61
2023-05-10T05:14:55.925Z,24.61
2023-05-10T05:15:55.946Z,24.62
2023-05-10T05:16:55.933Z,24.62
2023-05-10T05:17:56.041Z,24.62
2023-05-10T05:18:55.915Z,24.62
2023-05-10T05:19:55.900Z,24.62
2023-05-10T05:20:55.908Z,24.54
2023-05-10T05:21:55.893Z,24.27
2023-05-10T05:22:55.878Z,23.84
2023-05-10T05:23:55.863Z,23.46
2023-05-10T05:24:55.889Z,23.21
2023-05-10T05:25:55.865Z,22.98
2023-05-10T05:26:55.884Z,22.70
2023-05-10T05:27:55.842Z,22.54
2023-05-10T05:28:55.834Z,22.39
2023-05-10T05:29:55.837Z,22.31
2023-05-10T05:30:55.847Z,22.26
2023-05-10T05:31:55.951Z,22.23
2023-05-10T05:32:55.852Z,22.16
2023-05-10T05:33:56.207Z,22.06
2023-05-10T05:34:55.803Z,22.06
2023-05-10T05:35:55.796Z,21.97
2023-05-10T05:36:55.767Z,21.93
2023-05-10T05:37:55.770Z,21.96
2023-05-10T05:38:56.227Z,22.03
2023-05-10T05:39:55.755Z,22.15
2023-05-10T05:40:55.792Z,22.26
2023-05-10T05:41:55.750Z,22.32
2023-05-10T05:42:55.771Z,22.35
2023-05-10T05:43:56.209Z,22.35
2023-05-10T05:44:55.738Z,22.47
2023-05-10T05:46:02.784Z,22.53
2023-05-10T05:46:55.746Z,22.61
2023-05-10T05:47:55.832Z,22.72
2023-05-10T05:48:55.750Z,22.83
2023-05-10T05:49:55.718Z,22.95
2023-05-10T05:50:55.693Z,23.05
2023-05-10T05:51:55.681Z,23.15
2023-05-10T05:52:55.711Z,23.24
2023-05-10T05:53:55.752Z,23.33
2023-05-10T05:54:55.667Z,23.41
2023-05-10T05:55:55.688Z,23.47
2023-05-10T05:56:55.670Z,23.53
2023-05-10T05:57:55.631Z,23.59
2023-05-10T05:58:55.638Z,23.64
2023-05-10T05:59:55.613Z,23.70
2023-05-10T06:00:55.624Z,23.74
2023-05-10T06:01:55.730Z,23.78
2023-05-10T06:02:55.678Z,23.81
2023-05-10T06:03:55.711Z,23.85
2023-05-10T06:04:55.635Z,23.88
2023-05-10T06:05:55.597Z,23.91
2023-05-10T06:06:55.606Z,23.98
2023-05-10T06:07:55.577Z,24.05
2023-05-10T06:08:55.577Z,24.11
2023-05-10T06:09:55.567Z,24.19
2023-05-10T06:10:55.562Z,24.26
2023-05-10T06:11:55.548Z,24.33
2023-05-10T06:12:55.616Z,24.40
2023-05-10T06:13:55.562Z,24.47
2023-05-10T06:14:55.542Z,24.53
2023-05-10T06:15:55.520Z,24.59
2023-05-10T06:16:55.617Z,24.65
2023-05-10T06:17:56.210Z,24.69
2023-05-10T06:18:55.508Z,24.74
2023-05-10T06:19:55.616Z,24.80
2023-05-10T06:20:55.569Z,24.84
2023-05-10T06:21:55.601Z,24.88
2023-05-10T06:22:55.640Z,24.91
2023-05-10T06:23:55.680Z,24.94
2023-05-10T06:24:55.712Z,24.97
2023-05-10T06:25:55.729Z,25.00
2023-05-10T06:26:55.775Z,25.03
2023-05-10T06:27:55.792Z,25.05
2023-05-10T06:28:55.814Z,25.07
2023-05-10T06:30:02.068Z,25.09
2023-05-10T06:30:56.813Z,25.10
2023-05-10T06:31:55.966Z,25.11
2023-05-10T06:32:55.845Z,25.13
2023-05-10T06:33:56.739Z,25.16
2023-05-10T06:34:55.833Z,25.17
2023-05-10T06:35:55.820Z,25.20
2023-05-10T06:36:55.885Z,25.18
2023-05-10T06:37:55.898Z,25.11
2023-05-10T06:38:55.927Z,24.95
2023-05-10T06:39:56.007Z,24.77
2023-05-10T06:40:55.975Z,24.55
2023-05-10T06:41:55.991Z,24.51
2023-05-10T06:42:56.022Z,24.56
2023-05-10T06:43:55.980Z,24.62
2023-05-10T06:44:55.997Z,24.68
2023-05-10T06:45:56.050Z,24.74
2023-05-10T06:46:56.123Z,24.80
2023-05-10T06:47:56.191Z,24.85
2023-05-10T06:48:56.223Z,24.91
2023-05-10T06:49:56.781Z,24.97
2023-05-10T06:50:56.314Z,25.01
2023-05-10T06:51:56.330Z,25.05
2023-05-10T06:52:56.401Z,25.10
2023-05-10T06:53:56.456Z,25.13
2023-05-10T06:54:56.469Z,25.17
2023-05-10T06:55:56.493Z,25.20
2023-05-10T06:56:56.983Z,25.23
2023-05-10T06:57:56.732Z,25.25
2023-05-10T06:58:56.595Z,25.27
2023-05-10T06:59:56.586Z,25.29
2023-05-10T07:00:56.603Z,25.31
2023-05-10T07:01:56.597Z,25.33
2023-05-10T07:02:56.693Z,25.35
2023-05-10T07:03:56.625Z,25.36
2023-05-10T07:04:56.807Z,25.38
2023-05-10T07:05:56.706Z,25.39
2023-05-10T07:06:56.752Z,25.40
2023-05-10T07:07:56.758Z,25.42
2023-05-10T07:08:56.792Z,25.43
2023-05-10T07:09:56.792Z,25.44
2023-05-10T07:10:56.818Z,25.45
2023-05-10T07:11:56.805Z,25.43
2023-05-10T07:12:56.945Z,25.40
2023-05-10T07:13:57.081Z,25.37
2023-05-10T07:14:57.285Z,25.34
2023-05-10T07:15:56.949Z,25.28
2023-05-10T07:16:56.979Z,25.17
2023-05-10T07:17:57.092Z,25.03
2023-05-10T07:18:57.081Z,24.93
2023-05-10T07:19:57.115Z,24.84
2023-05-10T07:20:57.143Z,24.74
2023-05-10T07:21:57.123Z,24.65
2023-05-10T07:22:57.109Z,24.56
2023-05-10T07:23:57.148Z,24.52
2023-05-10T07:24:57.210Z,24.49
2023-05-10T07:25:57.242Z,24.46
2023-05-10T07:26:57.251Z,24.43
2023-05-10T07:27:57.241Z,24.39
2023-05-10T07:28:57.303Z,24.36
2023-05-10T07:29:57.343Z,24.33
2023-05-10T07:30:57.434Z,24.30
2023-05-10T07:31:58.828Z,24.28
2023-05-10T07:32:57.431Z,24.24
2023-05-10T07:33:57.449Z,24.23
2023-05-10T07:34:57.531Z,24.23
2023-05-10T07:35:57.554Z,24.21
2023-05-10T07:36:57.662Z,24.19
2023-05-10T07:37:57.718Z,24.19
2023-05-10T07:38:57.765Z,24.16
2023-05-10T07:39:57.851Z,24.10
2023-05-10T07:40:57.872Z,24.08
2023-05-10T07:41:57.982Z,24.03
2023-05-10T07:42:57.958Z,24.03
2023-05-10T07:43:58.006Z,24.02
2023-05-10T07:44:58.099Z,24.01
2023-05-10T07:45:58.123Z,23.98
2023-05-10T07:46:58.040Z,23.92
2023-05-10T07:47:58.087Z,23.90
2023-05-10T07:48:58.111Z,23.90
2023-05-10T07:49:58.162Z,23.93
2023-05-10T07:50:58.227Z,23.95
2023-05-10T07:51:58.251Z,24.01
2023-05-10T07:52:58.290Z,24.05
2023-05-10T07:53:58.387Z,24.09
2023-05-10T07:54:58.394Z,24.12
2023-05-10T07:55:58.393Z,24.16
2023-05-10T07:56:58.473Z,24.20
2023-05-10T07:57:58.475Z,24.24
2023-05-10T07:58:58.483Z,24.25
2023-05-10T07:59:58.801Z,24.28
2023-05-10T08:00:58.492Z,24.30
2023-05-10T08:01:58.545Z,24.32
2023-05-10T08:02:58.653Z,24.34
2023-05-10T08:03:58.628Z,24.35
2023-05-10T08:04:58.574Z,24.36
2023-05-10T08:05:58.562Z,24.38
2023-05-10T08:06:58.564Z,24.39
2023-05-10T08:07:58.562Z,24.39
2023-05-10T08:08:58.641Z,24.41
2023-05-10T08:09:58.613Z,24.42
2023-05-10T08:10:58.612Z,24.43
2023-05-10T08:11:58.591Z,24.45
2023-05-10T08:12:58.611Z,24.45
2023-05-10T08:13:58.633Z,24.46
2023-05-10T08:14:58.621Z,24.47
2023-05-10T08:15:58.667Z,24.47
2023-05-10T08:16:58.597Z,24.48
2023-05-10T08:17:58.667Z,24.49
2023-05-10T08:18:58.640Z,24.49
2023-05-10T08:19:58.589Z,24.49
2023-05-10T08:20:58.632Z,24.50
2023-05-10T08:21:59.320Z,24.51
2023-05-10T08:22:58.581Z,24.51
2023-05-10T08:23:58.572Z,24.51
2023-05-10T08:24:58.574Z,24.52
2023-05-10T08:25:58.595Z,24.52
2023-05-10T08:26:58.613Z,24.52
2023-05-10T08:27:58.563Z,24.52
2023-05-10T08:28:58.578Z,24.52
2023-05-10T08:29:58.679Z,24.53
2023-05-10T08:30:58.837Z,24.52
2023-05-10T08:31:58.554Z,24.50
2023-05-10T08:32:58.680Z,24.50
2023-05-10T08:33:58.666Z,24.49
2023-05-10T08:34:58.596Z,24.49
2023-05-10T08:35:58.844Z,24.47
2023-05-10T08:36:58.587Z,24.48
2023-05-10T08:37:58.621Z,24.49
2023-05-10T08:38:58.606Z,24.47
2023-05-10T08:39:58.589Z,24.48
2023-05-10T08:40:58.849Z,24.48
2023-05-10T08:41:58.607Z,24.48
2023-05-10T08:42:58.628Z,24.49
2023-05-10T08:43:58.585Z,24.49
2023-05-10T08:44:58.586Z,24.48
2023-05-10T08:45:58.618Z,24.47
2023-05-10T08:46:58.677Z,24.47
2023-05-10T08:47:58.614Z,24.48
2023-05-10T08:48:58.560Z,24.49
2023-05-10T08:49:58.549Z,24.49
2023-05-10T08:50:58.810Z,24.48
2023-05-10T08:51:58.595Z,24.48
2023-05-10T08:52:58.604Z,24.48
2023-05-10T08:53:58.625Z,24.48
2023-05-10T08:54:58.583Z,24.48
2023-05-10T08:55:58.611Z,24.48
2023-05-10T08:56:58.588Z,24.48
2023-05-10T08:57:58.561Z,24.49
2023-05-10T08:58:58.589Z,24.48
2023-05-10T08:59:58.595Z,24.48
2023-05-10T09:00:58.850Z,24.48
2023-05-10T09:01:58.576Z,24.47
2023-05-10T09:02:58.605Z,24.48
2023-05-10T09:03:58.682Z,24.49
2023-05-10T09:04:58.732Z,24.48
2023-05-10T09:05:58.833Z,24.48
2023-05-10T09:06:58.578Z,24.50
2023-05-10T09:07:58.608Z,24.50
2023-05-10T09:08:58.552Z,24.49
2023-05-10T09:09:58.578Z,24.49
2023-05-10T09:10:58.840Z,24.49
2023-05-10T09:11:58.623Z,24.50
2023-05-10T09:12:59.402Z,24.50
2023-05-10T09:13:58.542Z,24.50
2023-05-10T09:14:58.602Z,24.50
2023-05-10T09:16:02.260Z,24.51
2023-05-10T09:16:59.651Z,24.50
2023-05-10T09:17:58.585Z,24.50
2023-05-10T09:18:58.614Z,24.50
2023-05-10T09:19:58.527Z,24.50
2023-05-10T09:20:58.546Z,24.49
2023-05-10T09:21:58.542Z,24.50
2023-05-10T09:22:58.497Z,24.51
2023-05-10T09:23:58.521Z,24.51
2023-05-10T09:24:58.484Z,24.51
2023-05-10T09:25:58.491Z,24.51
2023-05-10T09:26:58.520Z,24.50
2023-05-10T09:27:58.477Z,24.51
2023-05-10T09:28:58.520Z,24.50
2023-05-10T09:29:58.459Z,24.51
2023-05-10T09:30:58.895Z,24.51
2023-05-10T09:31:58.472Z,24.51
2023-05-10T09:32:58.529Z,24.51
2023-05-10T09:33:58.450Z,24.51
2023-05-10T09:34:58.486Z,24.38
2023-05-10T09:35:58.482Z,24.21
2023-05-10T09:36:58.426Z,24.03
2023-05-10T09:37:58.443Z,23.96
2023-05-10T09:38:58.464Z,23.89
2023-05-10T09:39:58.476Z,23.80
2023-05-10T09:40:58.833Z,23.72
2023-05-10T09:41:58.519Z,23.67
2023-05-10T09:42:58.520Z,23.64
2023-05-10T09:43:58.594Z,23.67
2023-05-10T09:44:58.543Z,23.71
2023-05-10T09:45:58.869Z,23.78
2023-05-10T09:46:58.615Z,23.87
2023-05-10T09:47:58.690Z,23.97
2023-05-10T09:48:58.732Z,24.07
2023-05-10T09:49:58.752Z,24.15
2023-05-10T09:50:58.822Z,24.25
2023-05-10T09:51:58.791Z,24.35
2023-05-10T09:52:58.800Z,24.43
2023-05-10T09:53:58.851Z,24.51
2023-05-10T09:54:58.792Z,24.58
2023-05-10T09:55:58.850Z,24.63
2023-05-10T09:56:58.919Z,24.69
2023-05-10T09:57:58.970Z,24.75
2023-05-10T09:58:59.004Z,24.79
2023-05-10T09:59:59.058Z,24.84
2023-05-10T10:00:59.368Z,24.86
2023-05-10T10:01:59.298Z,24.90
2023-05-10T10:02:59.225Z,24.94
2023-05-10T10:03:59.178Z,24.97
2023-05-10T10:04:59.249Z,25.00
2023-05-10T10:05:59.256Z,25.02
2023-05-10T10:06:59.217Z,25.05
2023-05-10T10:07:59.268Z,25.08
2023-05-10T10:08:59.239Z,25.10
2023-05-10T10:09:59.268Z,25.11
2023-05-10T10:10:59.275Z,25.12
2023-05-10T10:11:59.281Z,25.14
2023-05-10T10:12:59.312Z,25.16
2023-05-10T10:13:59.316Z,25.18
2023-05-10T10:14:59.324Z,25.19
2023-05-10T10:15:59.413Z,25.21
2023-05-10T10:17:08.358Z,25.23
2023-05-10T10:18:00.410Z,25.24
2023-05-10T10:18:59.414Z,25.27
2023-05-10T10:19:59.304Z,25.27
2023-05-10T10:20:59.303Z,25.27
2023-05-10T10:21:59.320Z,25.29
2023-05-10T10:22:59.281Z,25.31
2023-05-10T10:23:59.266Z,25.33
2023-05-10T10:24:59.281Z,25.34
2023-05-10T10:25:59.250Z,25.34
2023-05-10T10:26:59.361Z,25.35
2023-05-10T10:27:59.247Z,25.36
2023-05-10T10:28:59.244Z,25.37
2023-05-10T10:29:59.247Z,25.38
2023-05-10T10:30:59.284Z,25.37
2023-05-10T10:31:59.292Z,25.34
2023-05-10T10:32:59.297Z,25.19
2023-05-10T10:33:59.192Z,25.10
2023-05-10T10:34:59.201Z,25.04
2023-05-10T10:35:59.162Z,24.99
2023-05-10T10:36:59.384Z,24.85
2023-05-10T10:37:59.187Z,24.61
2023-05-10T10:38:59.159Z,24.44
2023-05-10T10:39:59.356Z,24.25
2023-05-10T10:40:59.199Z,24.01
2023-05-10T10:41:59.402Z,23.79
2023-05-10T10:42:59.265Z,23.64
2023-05-10T10:43:59.279Z,23.51
2023-05-10T10:44:59.339Z,23.42
2023-05-10T10:45:59.371Z,23.37
2023-05-10T10:46:59.516Z,23.34
2023-05-10T10:47:59.501Z,23.33
2023-05-10T10:48:59.504Z,23.36
2023-05-10T10:49:59.472Z,23.32
2023-05-10T10:50:59.429Z,23.29
2023-05-10T10:51:59.463Z,23.25
2023-05-10T10:52:59.534Z,23.23
2023-05-10T10:53:59.522Z,23.21
2023-05-10T10:54:59.540Z,23.20
2023-05-10T10:55:59.616Z,23.18
2023-05-10T10:56:59.563Z,23.16
2023-05-10T10:57:59.606Z,23.15
2023-05-10T10:58:59.605Z,23.15
2023-05-10T10:59:59.656Z,23.12
2023-05-10T11:00:59.715Z,23.11
2023-05-10T11:01:59.733Z,23.10
2023-05-10T11:02:59.802Z,23.12
2023-05-10T11:03:59.793Z,23.14
2023-05-10T11:04:59.810Z,23.14
2023-05-10T11:05:59.808Z,23.14
2023-05-10T11:07:00.819Z,23.09
2023-05-10T11:07:59.799Z,23.07
2023-05-10T11:08:59.786Z,23.07
2023-05-10T11:09:59.817Z,23.08
2023-05-10T11:10:59.786Z,23.06
2023-05-10T11:11:59.833Z,23.06
2023-05-10T11:12:59.767Z,23.04
2023-05-10T11:13:59.823Z,23.06
2023-05-10T11:14:59.843Z,23.08
2023-05-10T11:15:59.740Z,23.06
2023-05-10T11:17:00.523Z,23.05
2023-05-10T11:17:59.808Z,23.05
2023-05-10T11:18:59.775Z,23.03
2023-05-10T11:19:59.696Z,23.04
2023-05-10T11:20:59.757Z,23.04
2023-05-10T11:21:59.716Z,23.04
2023-05-10T11:22:59.714Z,23.02
2023-05-10T11:23:59.761Z,22.98
2023-05-10T11:24:59.839Z,22.93
2023-05-10T11:25:59.782Z,22.94
2023-05-10T11:26:59.799Z,22.91
2023-05-10T11:27:59.945Z,22.90
2023-05-10T11:29:00.206Z,22.94
2023-05-10T11:30:00.390Z,22.98
2023-05-10T11:30:59.939Z,23.03
2023-05-10T11:32:00.008Z,23.11
2023-05-10T11:33:00.593Z,23.17
2023-05-10T11:34:00.007Z,23.22
2023-05-10T11:35:00.042Z,23.27
2023-05-10T11:36:00.049Z,23.31
2023-05-10T11:37:00.120Z,23.34
2023-05-10T11:38:00.461Z,23.36
2023-05-10T11:39:00.086Z,23.39
2023-05-10T11:40:00.033Z,23.38
2023-05-10T11:41:00.032Z,23.40
2023-05-10T11:42:00.015Z,23.40
2023-05-10T11:43:00.051Z,23.41
2023-05-10T11:44:00.024Z,23.43
2023-05-10T11:44:59.984Z,23.44
2023-05-10T11:46:00.068Z,23.46
2023-05-10T11:47:00.003Z,23.47
2023-05-10T11:48:00.094Z,23.49
2023-05-10T11:49:00.052Z,23.50
2023-05-10T11:50:00.125Z,23.52
2023-05-10T11:51:00.175Z,23.54
2023-05-10T11:52:00.173Z,23.55
2023-05-10T11:53:00.238Z,23.54
2023-05-10T11:54:00.250Z,23.55
2023-05-10T11:55:00.316Z,23.56
2023-05-10T11:56:00.401Z,23.57
2023-05-10T11:57:00.391Z,23.57
2023-05-10T11:58:00.467Z,23.58
2023-05-10T11:59:00.500Z,23.58
2023-05-10T12:00:00.560Z,23.58
2023-05-10T12:01:00.648Z,23.59
2023-05-10T12:02:00.660Z,23.60
2023-05-10T12:03:00.831Z,23.59
2023-05-10T12:04:01.059Z,23.61
2023-05-10T12:05:00.921Z,23.63
2023-05-10T12:06:00.882Z,23.62
2023-05-10T12:07:00.918Z,23.64
2023-05-10T12:08:00.973Z,23.63
2023-05-10T12:09:01.013Z,23.62
2023-05-10T12:10:01.093Z,23.62
2023-05-10T12:11:01.084Z,23.60
2023-05-10T12:12:01.130Z,23.56
2023-05-10T12:13:01.161Z,23.53
2023-05-10T12:14:01.131Z,23.48
2023-05-10T12:15:01.132Z,23.48
2023-05-10T12:16:01.210Z,23.47
2023-05-10T12:17:01.169Z,23.44
2023-05-10T12:18:01.224Z,23.46
2023-05-10T12:19:01.205Z,23.42
2023-05-10T12:20:01.213Z,23.37
2023-05-10T12:21:01.267Z,23.33
2023-05-10T12:22:01.293Z,23.34
2023-05-10T12:23:01.327Z,23.36
2023-05-10T12:24:01.377Z,23.40
2023-05-10T12:25:01.358Z,23.44
2023-05-10T12:26:01.375Z,23.48
2023-05-10T12:27:01.354Z,23.52
2023-05-10T12:28:01.396Z,23.55
2023-05-10T12:29:01.380Z,23.59
2023-05-10T12:30:01.460Z,23.64
2023-05-10T12:31:01.514Z,23.68
2023-05-10T12:32:01.607Z,23.72
2023-05-10T12:33:01.667Z,23.75
2023-05-10T12:34:01.671Z,23.78
2023-05-10T12:35:01.720Z,23.82
2023-05-10T12:36:01.762Z,23.84
2023-05-10T12:37:01.834Z,23.87
2023-05-10T12:38:01.860Z,23.90
2023-05-10T12:39:01.866Z,23.92
2023-05-10T12:40:01.908Z,23.95
2023-05-10T12:41:01.989Z,23.96
2023-05-10T12:42:01.993Z,23.97
2023-05-10T12:43:02.114Z,23.99
2023-05-10T12:44:02.065Z,24.01
2023-05-10T12:45:02.101Z,24.02
2023-05-10T12:46:02.153Z,24.04
2023-05-10T12:47:02.147Z,24.05
2023-05-10T12:48:02.232Z,24.06
2023-05-10T12:49:08.939Z,24.08
2023-05-10T12:50:03.190Z,24.08
2023-05-10T12:51:02.160Z,24.08
2023-05-10T12:52:02.200Z,24.09
2023-05-10T12:53:02.147Z,24.10